sensor_id;sensor_type;location;lat;lon;timestamp;pressure;altitude;pressure_sealevel;temperature;humidity
63096;BME280;49184;55.596;37.770;2023-07-31T00:01:49;98817.91;;;19.45;60.29
63096;BME280;49184;55.596;37.770;2023-07-31T00:04:15;98810.38;;;19.46;60.03
63096;BME280;49184;55.596;37.770;2023-07-31T00:06:41;98820.00;;;19.63;58.97
63096;BME280;49184;55.596;37.770;2023-07-31T00:09:07;98821.84;;;19.41;59.96
63096;BME280;49184;55.596;37.770;2023-07-31T00:11:33;98829.63;;;19.24;61.01
63096;BME280;49184;55.596;37.770;2023-07-31T00:13:59;98829.13;;;19.12;60.94
63096;BME280;49184;55.596;37.770;2023-07-31T00:16:25;98823.31;;;18.83;61.90
63096;BME280;49184;55.596;37.770;2023-07-31T00:18:51;98847.97;;;18.95;62.31
63096;BME280;49184;55.596;37.770;2023-07-31T00:21:17;98814.34;;;18.63;63.15
63096;BME280;49184;55.596;37.770;2023-07-31T00:23:43;98847.84;;;18.85;62.86
63096;BME280;49184;55.596;37.770;2023-07-31T00:26:09;98827.81;;;18.61;62.61
63096;BME280;49184;55.596;37.770;2023-07-31T00:28:35;98825.28;;;18.49;63.22
63096;BME280;49184;55.596;37.770;2023-07-31T00:31:01;98846.78;;;18.63;63.63
63096;BME280;49184;55.596;37.770;2023-07-31T00:33:28;98823.69;;;18.48;63.75
63096;BME280;49184;55.596;37.770;2023-07-31T00:35:55;98829.34;;;18.59;63.95
63096;BME280;49184;55.596;37.770;2023-07-31T00:38:21;98828.41;;;18.47;64.02
63096;BME280;49184;55.596;37.770;2023-07-31T00:40:47;98831.28;;;18.24;64.91
63096;BME280;49184;55.596;37.770;2023-07-31T00:43:13;98829.53;;;18.09;64.85
63096;BME280;49184;55.596;37.770;2023-07-31T00:45:40;98827.28;;;17.88;65.81
63096;BME280;49184;55.596;37.770;2023-07-31T00:48:06;98816.28;;;17.92;65.89
63096;BME280;49184;55.596;37.770;2023-07-31T00:50:34;98813.66;;;17.76;66.60
63096;BME280;49184;55.596;37.770;2023-07-31T00:53:01;98849.28;;;17.81;67.27
63096;BME280;49184;55.596;37.770;2023-07-31T00:55:27;98791.06;;;17.44;67.64
63096;BME280;49184;55.596;37.770;2023-07-31T00:57:53;98831.94;;;17.84;66.85
63096;BME280;49184;55.596;37.770;2023-07-31T01:00:21;98839.84;;;17.82;66.13
63096;BME280;49184;55.596;37.770;2023-07-31T01:02:49;98818.38;;;17.75;66.88
63096;BME280;49184;55.596;37.770;2023-07-31T01:05:22;98810.44;;;17.74;66.15
63096;BME280;49184;55.596;37.770;2023-07-31T01:08:03;98810.88;;;18.02;66.07
63096;BME280;49184;55.596;37.770;2023-07-31T01:10:41;98840.38;;;18.55;65.22
63096;BME280;49184;55.596;37.770;2023-07-31T01:13:11;98815.88;;;18.91;63.47
63096;BME280;49184;55.596;37.770;2023-07-31T01:15:37;98790.34;;;19.12;61.79
63096;BME280;49184;55.596;37.770;2023-07-31T01:18:04;98845.31;;;19.54;61.44
63096;BME280;49184;55.596;37.770;2023-07-31T01:20:30;98834.50;;;19.38;61.42
63096;BME280;49184;55.596;37.770;2023-07-31T01:26:04;98838.66;;;19.14;62.50
63096;BME280;49184;55.596;37.770;2023-07-31T01:31:07;98822.94;;;19.77;59.67
63096;BME280;49184;55.596;37.770;2023-07-31T01:33:37;98823.94;;;20.17;58.62
63096;BME280;49184;55.596;37.770;2023-07-31T01:36:03;98808.34;;;19.91;58.51
63096;BME280;49184;55.596;37.770;2023-07-31T01:38:29;98797.09;;;19.66;58.71
63096;BME280;49184;55.596;37.770;2023-07-31T01:40:55;98796.19;;;19.55;59.27
63096;BME280;49184;55.596;37.770;2023-07-31T01:43:25;98823.88;;;19.47;59.23
63096;BME280;49184;55.596;37.770;2023-07-31T01:45:51;98821.44;;;19.39;59.92
63096;BME280;49184;55.596;37.770;2023-07-31T01:48:17;98805.97;;;19.34;59.77
63096;BME280;49184;55.596;37.770;2023-07-31T01:50:43;98818.38;;;19.07;60.78
63096;BME280;49184;55.596;37.770;2023-07-31T01:53:09;98810.56;;;19.19;60.85
63096;BME280;49184;55.596;37.770;2023-07-31T01:55:36;98805.31;;;19.07;60.70
63096;BME280;49184;55.596;37.770;2023-07-31T01:58:01;98820.16;;;18.85;61.41
63096;BME280;49184;55.596;37.770;2023-07-31T02:00:27;98835.91;;;18.81;62.23
63096;BME280;49184;55.596;37.770;2023-07-31T02:02:53;98822.63;;;18.60;62.36
63096;BME280;49184;55.596;37.770;2023-07-31T02:05:20;98815.22;;;18.34;63.33
63096;BME280;49184;55.596;37.770;2023-07-31T02:07:46;98819.47;;;18.27;63.55
63096;BME280;49184;55.596;37.770;2023-07-31T02:10:12;98835.38;;;18.34;64.64
63096;BME280;49184;55.596;37.770;2023-07-31T02:12:37;98827.72;;;18.24;63.82
63096;BME280;49184;55.596;37.770;2023-07-31T02:15:04;98824.88;;;18.17;65.01
63096;BME280;49184;55.596;37.770;2023-07-31T02:17:31;98828.59;;;18.28;65.22
63096;BME280;49184;55.596;37.770;2023-07-31T02:19:57;98812.91;;;18.39;64.40
63096;BME280;49184;55.596;37.770;2023-07-31T02:22:24;98808.31;;;18.88;62.50
63096;BME280;49184;55.596;37.770;2023-07-31T02:24:50;98837.16;;;19.24;61.37
63096;BME280;49184;55.596;37.770;2023-07-31T02:27:16;98827.44;;;19.04;60.75
63096;BME280;49184;55.596;37.770;2023-07-31T02:29:42;98816.97;;;18.83;62.26
63096;BME280;49184;55.596;37.770;2023-07-31T02:32:08;98807.38;;;18.73;62.47
63096;BME280;49184;55.596;37.770;2023-07-31T02:34:35;98840.34;;;18.85;63.43
63096;BME280;49184;55.596;37.770;2023-07-31T02:37:01;98818.53;;;18.46;63.57
63096;BME280;49184;55.596;37.770;2023-07-31T02:39:27;98816.38;;;18.33;64.58
63096;BME280;49184;55.596;37.770;2023-07-31T02:41:53;98827.88;;;18.35;64.48
63096;BME280;49184;55.596;37.770;2023-07-31T02:44:19;98826.16;;;18.23;64.95
63096;BME280;49184;55.596;37.770;2023-07-31T02:46:46;98834.56;;;18.34;64.88
63096;BME280;49184;55.596;37.770;2023-07-31T02:49:18;98824.97;;;18.24;65.21
63096;BME280;49184;55.596;37.770;2023-07-31T02:51:44;98847.47;;;18.52;64.47
63096;BME280;49184;55.596;37.770;2023-07-31T02:54:10;98851.38;;;18.48;65.09
63096;BME280;49184;55.596;37.770;2023-07-31T02:56:36;98851.38;;;18.48;65.06
63096;BME280;49184;55.596;37.770;2023-07-31T02:59:02;98834.97;;;18.32;65.73
63096;BME280;49184;55.596;37.770;2023-07-31T03:01:28;98819.19;;;18.36;65.63
63096;BME280;49184;55.596;37.770;2023-07-31T03:03:54;98814.34;;;18.63;64.38
63096;BME280;49184;55.596;37.770;2023-07-31T03:06:20;98836.88;;;18.95;63.29
63096;BME280;49184;55.596;37.770;2023-07-31T03:08:47;98832.81;;;18.86;63.91
63096;BME280;49184;55.596;37.770;2023-07-31T03:11:14;98829.53;;;18.73;64.88
63096;BME280;49184;55.596;37.770;2023-07-31T03:13:41;98851.78;;;18.84;65.80
63096;BME280;49184;55.596;37.770;2023-07-31T03:16:07;98835.38;;;18.68;66.07
63096;BME280;49184;55.596;37.770;2023-07-31T03:18:33;98812.66;;;18.51;66.49
63096;BME280;49184;55.596;37.770;2023-07-31T03:20:59;98810.16;;;18.39;67.16
63096;BME280;49184;55.596;37.770;2023-07-31T03:23:25;98823.84;;;18.62;66.92
63096;BME280;49184;55.596;37.770;2023-07-31T03:26:01;98840.91;;;19.01;66.24
63096;BME280;49184;55.596;37.770;2023-07-31T03:28:29;98783.50;;;18.98;64.64
63096;BME280;49184;55.596;37.770;2023-07-31T03:30:56;98796.56;;;18.98;64.64
63096;BME280;49184;55.596;37.770;2023-07-31T03:33:22;98801.13;;;19.24;63.55
63096;BME280;49184;55.596;37.770;2023-07-31T03:35:50;98815.44;;;19.33;63.55
63096;BME280;49184;55.596;37.770;2023-07-31T03:38:16;98818.94;;;19.27;63.44
63096;BME280;49184;55.596;37.770;2023-07-31T03:40:42;98818.22;;;19.37;64.07
63096;BME280;49184;55.596;37.770;2023-07-31T03:43:08;98842.44;;;19.95;62.29
63096;BME280;49184;55.596;37.770;2023-07-31T03:45:34;98823.50;;;20.08;61.78
63096;BME280;49184;55.596;37.770;2023-07-31T03:48:00;98835.84;;;20.21;61.34
63096;BME280;49184;55.596;37.770;2023-07-31T03:50:27;98795.25;;;19.88;61.61
63096;BME280;49184;55.596;37.770;2023-07-31T03:52:53;98785.13;;;19.55;62.11
63096;BME280;49184;55.596;37.770;2023-07-31T03:55:19;98844.00;;;19.92;62.92
63096;BME280;49184;55.596;37.770;2023-07-31T03:57:47;98840.81;;;19.87;63.09
63096;BME280;49184;55.596;37.770;2023-07-31T04:00:15;98851.16;;;19.93;63.40
63096;BME280;49184;55.596;37.770;2023-07-31T04:02:41;98845.63;;;19.93;63.12
63096;BME280;49184;55.596;37.770;2023-07-31T04:05:08;98853.56;;;20.02;62.70
63096;BME280;49184;55.596;37.770;2023-07-31T04:07:37;98804.06;;;20.04;61.90
63096;BME280;49184;55.596;37.770;2023-07-31T04:10:04;98835.81;;;20.17;61.77
63096;BME280;49184;55.596;37.770;2023-07-31T04:12:30;98847.38;;;20.27;58.67
63096;BME280;49184;55.596;37.770;2023-07-31T04:14:56;98825.16;;;20.27;59.22
63096;BME280;49184;55.596;37.770;2023-07-31T04:17:23;98810.53;;;20.37;60.27
63096;BME280;49184;55.596;37.770;2023-07-31T04:19:49;98849.19;;;20.92;58.80
63096;BME280;49184;55.596;37.770;2023-07-31T04:22:15;98851.97;;;20.92;58.30
63096;BME280;49184;55.596;37.770;2023-07-31T04:24:41;98799.16;;;20.78;57.99
63096;BME280;49184;55.596;37.770;2023-07-31T04:27:07;98830.19;;;21.26;57.27
63096;BME280;49184;55.596;37.770;2023-07-31T04:29:33;98833.78;;;21.55;55.72
63096;BME280;49184;55.596;37.770;2023-07-31T04:31:59;98812.72;;;21.33;55.55
63096;BME280;49184;55.596;37.770;2023-07-31T04:34:25;98854.84;;;21.56;55.29
63096;BME280;49184;55.596;37.770;2023-07-31T04:36:51;98834.97;;;21.54;55.74
63096;BME280;49184;55.596;37.770;2023-07-31T04:39:18;98849.66;;;21.55;55.43
63096;BME280;49184;55.596;37.770;2023-07-31T04:41:44;98842.50;;;21.25;54.81
63096;BME280;49184;55.596;37.770;2023-07-31T04:44:10;98838.94;;;21.35;56.43
63096;BME280;49184;55.596;37.770;2023-07-31T04:46:40;98862.00;;;21.54;55.24
63096;BME280;49184;55.596;37.770;2023-07-31T04:49:08;98841.75;;;21.43;55.85
63096;BME280;49184;55.596;37.770;2023-07-31T04:51:33;98851.28;;;21.52;54.46
63096;BME280;49184;55.596;37.770;2023-07-31T04:53:59;98848.88;;;21.62;55.66
63096;BME280;49184;55.596;37.770;2023-07-31T04:56:25;98850.03;;;21.93;55.22
63096;BME280;49184;55.596;37.770;2023-07-31T04:58:51;98849.97;;;22.25;54.35
63096;BME280;49184;55.596;37.770;2023-07-31T05:01:17;98848.00;;;22.22;52.21
63096;BME280;49184;55.596;37.770;2023-07-31T05:03:43;98854.72;;;22.28;52.69
63096;BME280;49184;55.596;37.770;2023-07-31T05:06:09;98863.44;;;22.41;53.45
63096;BME280;49184;55.596;37.770;2023-07-31T05:08:35;98861.72;;;22.75;52.13
63096;BME280;49184;55.596;37.770;2023-07-31T05:11:02;98860.06;;;22.85;50.77
63096;BME280;49184;55.596;37.770;2023-07-31T05:13:28;98839.00;;;22.73;51.08
63096;BME280;49184;55.596;37.770;2023-07-31T05:15:54;98832.66;;;22.73;51.26
63096;BME280;49184;55.596;37.770;2023-07-31T05:18:19;98850.47;;;22.90;48.14
63096;BME280;49184;55.596;37.770;2023-07-31T05:20:45;98869.53;;;23.06;50.28
63096;BME280;49184;55.596;37.770;2023-07-31T05:23:11;98868.72;;;23.05;50.89
63096;BME280;49184;55.596;37.770;2023-07-31T05:25:37;98847.59;;;23.11;50.05
63096;BME280;49184;55.596;37.770;2023-07-31T05:28:03;98862.31;;;23.12;48.71
63096;BME280;49184;55.596;37.770;2023-07-31T05:30:30;98865.91;;;23.09;49.17
63096;BME280;49184;55.596;37.770;2023-07-31T05:32:56;98836.94;;;22.92;50.60
63096;BME280;49184;55.596;37.770;2023-07-31T05:35:22;98841.53;;;23.20;50.53
63096;BME280;49184;55.596;37.770;2023-07-31T05:37:48;98848.59;;;23.35;49.87
63096;BME280;49184;55.596;37.770;2023-07-31T05:40:15;98858.06;;;23.49;49.33
63096;BME280;49184;55.596;37.770;2023-07-31T05:42:41;98866.38;;;23.56;48.83
63096;BME280;49184;55.596;37.770;2023-07-31T05:45:07;98865.81;;;23.75;48.07
63096;BME280;49184;55.596;37.770;2023-07-31T05:47:33;98855.66;;;23.47;46.88
63096;BME280;49184;55.596;37.770;2023-07-31T05:49:59;98862.00;;;23.55;45.00
63096;BME280;49184;55.596;37.770;2023-07-31T05:52:25;98858.84;;;23.49;46.89
63096;BME280;49184;55.596;37.770;2023-07-31T05:54:51;98855.38;;;23.34;46.26
63096;BME280;49184;55.596;37.770;2023-07-31T05:57:17;98861.97;;;23.58;47.70
63096;BME280;49184;55.596;37.770;2023-07-31T05:59:43;98858.44;;;23.47;47.69
63096;BME280;49184;55.596;37.770;2023-07-31T06:02:09;98852.56;;;23.38;46.95
63096;BME280;49184;55.596;37.770;2023-07-31T06:04:35;98859.38;;;23.33;44.70
63096;BME280;49184;55.596;37.770;2023-07-31T06:07:01;98848.59;;;23.35;44.70
63096;BME280;49184;55.596;37.770;2023-07-31T06:09:27;98866.81;;;23.47;44.97
63096;BME280;49184;55.596;37.770;2023-07-31T06:11:53;98859.25;;;23.48;47.15
63096;BME280;49184;55.596;37.770;2023-07-31T06:14:19;98871.66;;;23.43;43.90
63096;BME280;49184;55.596;37.770;2023-07-31T06:16:45;98861.06;;;23.20;44.69
63096;BME280;49184;55.596;37.770;2023-07-31T06:19:12;98870.81;;;23.46;45.61
63096;BME280;49184;55.596;37.770;2023-07-31T06:21:38;98883.78;;;23.71;44.92
63096;BME280;49184;55.596;37.770;2023-07-31T06:24:07;98860.34;;;23.57;43.88
63096;BME280;49184;55.596;37.770;2023-07-31T06:26:33;98852.53;;;23.41;43.95
63096;BME280;49184;55.596;37.770;2023-07-31T06:28:59;98870.41;;;23.48;46.50
63096;BME280;49184;55.596;37.770;2023-07-31T06:31:26;98869.94;;;23.56;45.45
63096;BME280;49184;55.596;37.770;2023-07-31T06:33:52;98858.44;;;23.47;44.38
63096;BME280;49184;55.596;37.770;2023-07-31T06:36:18;98869.28;;;23.86;46.65
63096;BME280;49184;55.596;37.770;2023-07-31T06:38:44;98864.25;;;23.74;43.17
63096;BME280;49184;55.596;37.770;2023-07-31T06:41:10;98867.25;;;23.90;44.57
63096;BME280;49184;55.596;37.770;2023-07-31T06:43:36;98860.41;;;23.99;44.69
63096;BME280;49184;55.596;37.770;2023-07-31T06:46:06;98881.41;;;24.10;43.95
63096;BME280;49184;55.596;37.770;2023-07-31T06:48:33;98877.75;;;24.17;43.90
63096;BME280;49184;55.596;37.770;2023-07-31T06:51:00;98883.69;;;24.23;42.52
63096;BME280;49184;55.596;37.770;2023-07-31T06:53:26;98873.69;;;24.25;43.23
63096;BME280;49184;55.596;37.770;2023-07-31T06:55:52;98859.03;;;24.18;42.11
63096;BME280;49184;55.596;37.770;2023-07-31T06:58:20;98879.69;;;24.24;43.22
63096;BME280;49184;55.596;37.770;2023-07-31T07:00:47;98873.34;;;24.20;41.54
63096;BME280;49184;55.596;37.770;2023-07-31T07:03:18;98846.47;;;24.33;42.47
63096;BME280;49184;55.596;37.770;2023-07-31T07:05:44;98853.47;;;24.14;40.26
63096;BME280;49184;55.596;37.770;2023-07-31T07:08:10;98859.16;;;24.03;42.68
63096;BME280;49184;55.596;37.770;2023-07-31T07:10:37;98839.91;;;24.12;44.19
63096;BME280;49184;55.596;37.770;2023-07-31T07:13:02;98871.34;;;24.58;43.68
63096;BME280;49184;55.596;37.770;2023-07-31T07:15:28;98871.16;;;24.72;40.63
63096;BME280;49184;55.596;37.770;2023-07-31T07:17:54;98859.81;;;24.52;42.33
63096;BME280;49184;55.596;37.770;2023-07-31T07:20:20;98831.25;;;24.41;41.34
63096;BME280;49184;55.596;37.770;2023-07-31T07:22:46;98855.63;;;24.33;39.52
63096;BME280;49184;55.596;37.770;2023-07-31T07:25:15;98869.03;;;24.49;40.41
63096;BME280;49184;55.596;37.770;2023-07-31T07:27:41;98876.53;;;24.56;39.10
63096;BME280;49184;55.596;37.770;2023-07-31T07:30:07;98883.06;;;24.46;38.13
63096;BME280;49184;55.596;37.770;2023-07-31T07:32:34;98882.44;;;24.65;41.70
63096;BME280;49184;55.596;37.770;2023-07-31T07:35:00;98876.88;;;24.61;41.31
63096;BME280;49184;55.596;37.770;2023-07-31T07:37:27;98874.47;;;24.64;39.05
63096;BME280;49184;55.596;37.770;2023-07-31T07:39:53;98862.19;;;24.57;41.72
63096;BME280;49184;55.596;37.770;2023-07-31T07:42:18;98887.78;;;24.83;38.70
63096;BME280;49184;55.596;37.770;2023-07-31T07:44:44;98873.22;;;24.68;38.15
63096;BME280;49184;55.596;37.770;2023-07-31T07:47:10;98879.38;;;24.83;38.87
63096;BME280;49184;55.596;37.770;2023-07-31T07:49:36;98886.94;;;24.86;37.60
63096;BME280;49184;55.596;37.770;2023-07-31T07:52:03;98870.94;;;24.87;40.68
63096;BME280;49184;55.596;37.770;2023-07-31T07:54:30;98891.59;;;24.96;39.50
63096;BME280;49184;55.596;37.770;2023-07-31T07:56:55;98875.56;;;25.00;39.79
63096;BME280;49184;55.596;37.770;2023-07-31T07:59:21;98876.72;;;25.03;39.29
63096;BME280;49184;55.596;37.770;2023-07-31T08:01:47;98869.44;;;24.82;36.51
63096;BME280;49184;55.596;37.770;2023-07-31T08:04:13;98880.47;;;24.93;37.53
63096;BME280;49184;55.596;37.770;2023-07-31T08:06:40;98887.84;;;25.06;38.92
63096;BME280;49184;55.596;37.770;2023-07-31T08:09:09;98886.75;;;25.00;36.37
63096;BME280;49184;55.596;37.770;2023-07-31T08:11:35;98892.84;;;25.22;39.72
63096;BME280;49184;55.596;37.770;2023-07-31T08:14:01;98884.00;;;25.27;39.57
63096;BME280;49184;55.596;37.770;2023-07-31T08:16:29;98846.72;;;25.07;38.93
63096;BME280;49184;55.596;37.770;2023-07-31T08:18:54;98884.00;;;25.27;36.61
63096;BME280;49184;55.596;37.770;2023-07-31T08:21:21;98893.44;;;25.37;39.13
63096;BME280;49184;55.596;37.770;2023-07-31T08:23:47;98871.91;;;25.34;38.59
63096;BME280;49184;55.596;37.770;2023-07-31T08:26:17;98891.50;;;25.58;39.96
63096;BME280;49184;55.596;37.770;2023-07-31T08:28:45;98881.34;;;25.67;37.11
63096;BME280;49184;55.596;37.770;2023-07-31T08:31:11;98897.19;;;25.77;37.62
63096;BME280;49184;55.596;37.770;2023-07-31T08:33:38;98889.75;;;25.67;38.29
63096;BME280;49184;55.596;37.770;2023-07-31T08:36:04;98886.38;;;25.76;38.42
63096;BME280;49184;55.596;37.770;2023-07-31T08:38:30;98868.63;;;25.63;35.61
63096;BME280;49184;55.596;37.770;2023-07-31T08:40:57;98879.72;;;25.70;37.20
63096;BME280;49184;55.596;37.770;2023-07-31T08:43:26;98896.22;;;25.88;38.36
63096;BME280;49184;55.596;37.770;2023-07-31T08:45:54;98881.06;;;25.85;38.02
63096;BME280;49184;55.596;37.770;2023-07-31T08:48:23;98894.72;;;25.83;36.25
63096;BME280;49184;55.596;37.770;2023-07-31T08:50:52;98880.13;;;25.68;35.79
63096;BME280;49184;55.596;37.770;2023-07-31T08:53:19;98887.97;;;25.81;37.79
63096;BME280;49184;55.596;37.770;2023-07-31T08:55:46;98903.84;;;25.87;36.84
63096;BME280;49184;55.596;37.770;2023-07-31T08:58:13;98906.06;;;25.96;36.38
63096;BME280;49184;55.596;37.770;2023-07-31T09:00:41;98895.97;;;26.02;36.11
63096;BME280;49184;55.596;37.770;2023-07-31T09:03:13;98891.47;;;25.85;37.29
63096;BME280;49184;55.596;37.770;2023-07-31T09:05:43;98898.06;;;25.98;35.67
63096;BME280;49184;55.596;37.770;2023-07-31T09:08:12;98900.84;;;25.98;33.35
63096;BME280;49184;55.596;37.770;2023-07-31T09:10:43;98889.84;;;25.87;34.61
63096;BME280;49184;55.596;37.770;2023-07-31T09:13:09;98890.09;;;25.96;37.22
63096;BME280;49184;55.596;37.770;2023-07-31T09:15:37;98884.63;;;26.09;35.56
63096;BME280;49184;55.596;37.770;2023-07-31T09:18:05;98890.00;;;26.23;36.20
63096;BME280;49184;55.596;37.770;2023-07-31T09:20:32;98891.16;;;26.26;36.24
63096;BME280;49184;55.596;37.770;2023-07-31T09:23:10;98901.63;;;26.42;33.94
63096;BME280;49184;55.596;37.770;2023-07-31T09:25:37;98905.72;;;26.37;35.34
63096;BME280;49184;55.596;37.770;2023-07-31T09:28:06;98907.81;;;26.33;35.36
63096;BME280;49184;55.596;37.770;2023-07-31T09:30:50;98894.53;;;26.37;34.73
63096;BME280;49184;55.596;37.770;2023-07-31T09:33:19;98878.41;;;26.41;35.83
63096;BME280;49184;55.596;37.770;2023-07-31T09:35:46;98901.72;;;26.58;35.61
63096;BME280;49184;55.596;37.770;2023-07-31T09:38:14;98872.03;;;26.41;34.24
63096;BME280;49184;55.596;37.770;2023-07-31T09:40:47;98890.00;;;26.43;32.59
63096;BME280;49184;55.596;37.770;2023-07-31T09:43:19;98880.72;;;26.27;34.92
63096;BME280;49184;55.596;37.770;2023-07-31T09:45:45;98887.53;;;26.49;35.49
63096;BME280;49184;55.596;37.770;2023-07-31T09:48:12;98895.19;;;26.65;36.11
63096;BME280;49184;55.596;37.770;2023-07-31T09:50:40;98877.72;;;26.57;34.74
63096;BME280;49184;55.596;37.770;2023-07-31T09:53:07;98885.44;;;26.53;34.39
63096;BME280;49184;55.596;37.770;2023-07-31T09:55:36;98881.94;;;26.45;35.28
63096;BME280;49184;55.596;37.770;2023-07-31T09:58:08;98884.31;;;26.47;36.72
63096;BME280;49184;55.596;37.770;2023-07-31T10:00:35;98898.00;;;26.65;33.54
63096;BME280;49184;55.596;37.770;2023-07-31T10:03:07;98895.56;;;26.67;34.01
63096;BME280;49184;55.596;37.770;2023-07-31T10:05:40;98871.25;;;26.40;34.01
63096;BME280;49184;55.596;37.770;2023-07-31T10:08:10;98886.22;;;26.54;34.64
63096;BME280;49184;55.596;37.770;2023-07-31T10:10:41;98886.63;;;26.72;37.10
63096;BME280;49184;55.596;37.770;2023-07-31T10:13:10;98875.41;;;26.72;34.35
63096;BME280;49184;55.596;37.770;2023-07-31T10:15:37;98879.38;;;26.75;36.53
63096;BME280;49184;55.596;37.770;2023-07-31T10:18:06;98855.75;;;26.56;33.07
63096;BME280;49184;55.596;37.770;2023-07-31T10:20:34;98867.06;;;26.68;35.07
63096;BME280;49184;55.596;37.770;2023-07-31T10:23:01;98877.72;;;26.77;32.75
63096;BME280;49184;55.596;37.770;2023-07-31T10:25:27;98901.38;;;26.76;32.54
63096;BME280;49184;55.596;37.770;2023-07-31T10:27:54;98874.94;;;26.57;34.75
63096;BME280;49184;55.596;37.770;2023-07-31T10:30:25;98892.22;;;26.92;35.58
63096;BME280;49184;55.596;37.770;2023-07-31T10:32:54;98885.38;;;27.13;34.38
63096;BME280;49184;55.596;37.770;2023-07-31T10:35:24;98881.94;;;26.85;31.75
63096;BME280;49184;55.596;37.770;2023-07-31T10:37:51;98889.63;;;26.81;36.66
63096;BME280;49184;55.596;37.770;2023-07-31T10:40:23;98889.94;;;26.67;34.77
63096;BME280;49184;55.596;37.770;2023-07-31T10:42:51;98888.38;;;26.66;36.71
63096;BME280;49184;55.596;37.770;2023-07-31T10:45:39;98879.59;;;26.64;37.62
63096;BME280;49184;55.596;37.770;2023-07-31T10:48:16;98898.00;;;26.65;35.63
63096;BME280;49184;55.596;37.770;2023-07-31T10:50:50;98882.56;;;26.57;35.63
63096;BME280;49184;55.596;37.770;2023-07-31T10:53:32;98900.84;;;26.41;34.66
63096;BME280;49184;55.596;37.770;2023-07-31T10:56:03;98896.72;;;26.69;37.66
63096;BME280;49184;55.596;37.770;2023-07-31T10:58:31;98889.63;;;26.81;35.77
63096;BME280;49184;55.596;37.770;2023-07-31T11:00:59;98894.25;;;27.08;36.29
63096;BME280;49184;55.596;37.770;2023-07-31T11:03:56;98895.72;;;27.16;36.05
63096;BME280;49184;55.596;37.770;2023-07-31T11:06:22;98877.56;;;26.84;36.76
63096;BME280;49184;55.596;37.770;2023-07-31T11:08:50;98889.84;;;26.90;37.55
63096;BME280;49184;55.596;37.770;2023-07-31T11:11:18;98879.22;;;26.82;37.29
63096;BME280;49184;55.596;37.770;2023-07-31T11:13:46;98887.22;;;26.63;35.92
63096;BME280;49184;55.596;37.770;2023-07-31T11:16:15;98878.19;;;26.56;37.06
63096;BME280;49184;55.596;37.770;2023-07-31T11:18:44;98871.41;;;26.53;37.32
63096;BME280;49184;55.596;37.770;2023-07-31T11:21:19;98861.25;;;26.79;34.99
63096;BME280;49184;55.596;37.770;2023-07-31T11:23:50;98881.94;;;27.22;36.30
63096;BME280;49184;55.596;37.770;2023-07-31T11:26:17;98857.44;;;27.42;36.07
63096;BME280;49184;55.596;37.770;2023-07-31T11:28:46;98873.56;;;27.54;36.00
63096;BME280;49184;55.596;37.770;2023-07-31T11:31:12;98871.00;;;27.44;35.77
63096;BME280;49184;55.596;37.770;2023-07-31T11:33:40;98868.19;;;27.27;36.13
63096;BME280;49184;55.596;37.770;2023-07-31T11:36:14;98872.16;;;26.93;34.35
63096;BME280;49184;55.596;37.770;2023-07-31T11:38:40;98870.69;;;26.69;35.35
63096;BME280;49184;55.596;37.770;2023-07-31T11:41:06;98871.09;;;26.67;37.22
63096;BME280;49184;55.596;37.770;2023-07-31T11:43:32;98888.09;;;26.60;37.45
63096;BME280;49184;55.596;37.770;2023-07-31T11:46:00;98880.97;;;26.56;36.89
63096;BME280;49184;55.596;37.770;2023-07-31T11:48:31;98877.72;;;26.57;37.48
63096;BME280;49184;55.596;37.770;2023-07-31T11:51:06;98890.53;;;26.58;37.23
63096;BME280;49184;55.596;37.770;2023-07-31T11:53:44;98891.88;;;26.30;38.15
63096;BME280;49184;55.596;37.770;2023-07-31T11:56:13;98887.53;;;26.45;38.28
63096;BME280;49184;55.596;37.770;2023-07-31T11:58:40;98883.50;;;26.50;38.14
63096;BME280;49184;55.596;37.770;2023-07-31T12:01:08;98883.03;;;26.52;39.12
63096;BME280;49184;55.596;37.770;2023-07-31T12:03:35;98886.72;;;26.48;38.43
63096;BME280;49184;55.596;37.770;2023-07-31T12:06:01;98895.53;;;26.47;38.18
63096;BME280;49184;55.596;37.770;2023-07-31T12:08:28;98880.59;;;26.54;37.86
63096;BME280;49184;55.596;37.770;2023-07-31T12:11:02;98896.69;;;26.89;36.58
63096;BME280;49184;55.596;37.770;2023-07-31T12:13:30;98902.06;;;27.00;37.58
63096;BME280;49184;55.596;37.770;2023-07-31T12:16:00;98896.94;;;27.15;36.73
63096;BME280;49184;55.596;37.770;2023-07-31T12:18:30;98901.69;;;27.34;36.65
63096;BME280;49184;55.596;37.770;2023-07-31T12:20:57;98893.78;;;27.13;36.87
63096;BME280;49184;55.596;37.770;2023-07-31T12:23:26;98889.66;;;27.17;35.47
63096;BME280;49184;55.596;37.770;2023-07-31T12:26:10;98891.72;;;27.33;36.60
63096;BME280;49184;55.596;37.770;2023-07-31T12:28:39;98903.75;;;27.67;36.62
63096;BME280;49184;55.596;37.770;2023-07-31T12:31:07;98896.19;;;27.63;34.58
63096;BME280;49184;55.596;37.770;2023-07-31T12:33:35;98879.06;;;27.58;35.38
63096;BME280;49184;55.596;37.770;2023-07-31T12:36:03;98898.56;;;27.81;36.13
63096;BME280;49184;55.596;37.770;2023-07-31T12:38:30;98895.69;;;28.01;36.20
63096;BME280;49184;55.596;37.770;2023-07-31T12:40:56;98895.84;;;27.94;33.56
63096;BME280;49184;55.596;37.770;2023-07-31T12:43:22;98899.28;;;28.02;33.39
63096;BME280;49184;55.596;37.770;2023-07-31T12:45:49;98899.41;;;28.11;35.09
63096;BME280;49184;55.596;37.770;2023-07-31T12:48:15;98891.41;;;28.26;35.21
63096;BME280;49184;55.596;37.770;2023-07-31T12:50:41;98886.72;;;28.36;34.07
63096;BME280;49184;55.596;37.770;2023-07-31T12:53:07;98896.97;;;28.13;35.65
63096;BME280;49184;55.596;37.770;2023-07-31T12:55:34;98894.28;;;27.77;34.73
63096;BME280;49184;55.596;37.770;2023-07-31T12:58:02;98888.66;;;27.60;33.86